Tiempo atmosférico en la estación meteorológica de Soria, Soria (1082 m.)



Fecha
DESCASC
Temp. máxima en grados centígrados (hora)
DESCASC
Temp. mínima en grados centígrados (hora)
DESCASC
Temp. media en grados centígrados
DESCASC
Racha de viento máxima en m/sg (hora)
DESCASC
Velocidad máxima media en intervalos de 10 minutos(hora)
DESCASC
Precipitaciones diarias en mm
DESCASC
Precipitaciones de 00:00 a 06:00 en mm
DESCASC
Precipitaciones de 06:00 a 12:00 en mm
DESCASC
Precipitaciones de 12:00 a 18:00 en mm
DESCASC
Precipitaciones de 18:00 a 24:00 en mm
DESCASC
19-09-2019 24.5 (16:10) 11.7 (07:20) 18.1 8.33 (16:20) 3.61 (16:30) 0 0 0 0 0
18-09-2019 24.3 (16:10) 11.8 (07:50) 18 7.22 (03:50) 3.33 (00:10) 2.8 2.8 0 0 0
17-09-2019 27.3 (16:20) 13.7 (00:00) 20.5 9.72 (23:10) 4.72 (23:10) 0 0 0 0 0
16-09-2019 24.2 (15:00) 13.9 (00:00) 19.1 6.11 (12:50) 3.33 (15:10) 0 0 0 0 0
15-09-2019 20.9 (11:30) 13.7 (00:00) 17.3 9.17 (12:10) 4.72 (15:50) 25.6 0 0.2 12.2 13.2
14-09-2019 24.8 (15:20) 12.8 (00:00) 18.8 11.11 (13:40) 5.28 (17:40) 0.2 0 0 0 0.2
13-09-2019 23.1 (13:50) 11.9 (00:00) 17.5 10.56 (14:20) 5.28 (10:50) 0.2 0 0 0.2 0
12-09-2019 26.2 (16:20) 8.3 (00:00) 17.3 9.44 (13:40) 3.89 (13:40) 0 0 0 0 0
11-09-2019 19.5 (16:50) 9.9 (00:00) 14.7 15.83 (10:00) 8.89 (14:10) 0 0 0 0 0
10-09-2019 14.9 (13:00) 8.7 (08:00) 11.8 12.5 (22:30) 5.83 (23:20) 1.8 0 0 1.6 0.2
09-09-2019 26.1 (15:30) 7.2 (07:50) 16.7 11.67 (14:00) 6.67 (15:00) 0 0 0 0 0
08-09-2019 25.1 (17:00) 8.8 (00:00) 17 7.22 (19:50) 4.17 (19:20) 0 0 0 0 0
07-09-2019 22.7 (16:20) 6.9 (00:00) 14.8 9.44 (21:00) 5 (21:00) 0 0 0 0 0
06-09-2019 20.3 (16:20) 7.5 (00:00) 13.9 12.22 (00:20) 6.39 (19:20) 0 0 0 0 0
05-09-2019 19.3 (15:30) 10.4 (00:00) 14.8 12.5 (18:30) 6.94 (19:10) 0 0 0 0 0
04-09-2019 28.6 (14:50) 9.1 (00:00) 18.9 12.78 (20:20) 6.67 (19:50) 0 0 0 0 0
03-09-2019 29.5 (16:50) 7.2 (00:00) 18.3 8.06 (00:30) 4.17 (00:10) 0 0 0 0 0
02-09-2019 24.5 (16:40) 11.2 (00:00) 17.8 9.72 (10:10) 5.56 (19:10) 0 0 0 0 0
01-09-2019 26.8 (13:30) 14.2 (00:00) 20.5 11.39 (22:20) 6.67 (19:50) 0 0 0 0 0
31-08-2019 31.5 (16:10) 13.8 (00:00) 22.7 7.22 (16:30) 4.72 (16:30) 0.4 0 0 0 0.4
30-08-2019 31.2 (15:30) 13.4 (00:00) 22.3 8.33 (18:20) 4.17 (18:20) 0 0 0 0 0
29-08-2019 30.6 (16:00) 13.3 (00:00) 22 -- (--) 11.39 (12:30) 0.2 0 0 0 0.2
28-08-2019 29.6 (17:50) 12.1 (00:00) 20.9 6.11 (18:30) 3.33 (19:50) 0 0 0 0 0
27-08-2019 24 (14:40) 12.8 (00:00) 18.4 10.83 (00:20) 5 (00:30) 1.4 1.4 0 0 0
26-08-2019 28.2 (16:50) 14.9 (00:00) 21.6 10 (15:20) 5.28 (15:10) 15.6 0 0 0 15.6
25-08-2019 31.2 (15:40) 12.8 (00:00) 22 9.17 (19:40) 3.89 (19:20) 0 0 0 0 0
24-08-2019 32.2 (17:10) 12.8 (00:00) 22.5 10 (19:00) 5.28 (19:20) 0 0 0 0 0
23-08-2019 30.9 (16:40) 9.5 (00:00) 20.2 6.94 (17:30) 3.33 (20:20) 0 0 0 0 0
22-08-2019 28.8 (17:10) 9.4 (00:00) 19.1 6.94 (18:20) 3.89 (18:20) 0 0 0 0 0
21-08-2019 26 (16:40) 12.3 (00:00) 19.2 7.5 (17:00) 4.17 (17:10) 0 0 0 0 0

Gráficas

Temp. máximas Temp. mínimas Temp. medias Precipitaciones Rachas de viento máximas Velocidades máximas media en intervalos de 10 minutos

Datos horarios

Fecha y hora oficial Temperatura (ºC) Velocidad del viento (km/h) Dirección del viento Racha (km/h) Dirección de racha Precipitación (mm) Presión (hPa) Tendencia (hPa) Humedad (%)
2019-09-19 23:00:00 18.3 5 Este 12 Este 0 897.1 1.6 72
2019-09-19 22:00:00 18.2 6 Este 14 Nordeste 0 896.9 1.4 73
2019-09-19 21:00:00 19.7 5 Sudeste 14 Sudoeste 0 895.9 0.5 56
2019-09-19 20:00:00 21 7 Sur 14 Sur 0 895.5 -0.2 54
2019-09-19 19:00:00 23.3 9 Sudoeste 25 Sur 0 895.5 -0.2 46
2019-09-19 18:00:00 24.2 9 Sudoeste 18 Sudoeste 0 895.4 -0.7 42
2019-09-19 17:00:00 22.2 12 Sur 30 Sur 0 895.7 -1.1 50
2019-09-19 16:00:00 24 4 Sudoeste 12 Norte 0 895.7 -1.5 45
2019-09-19 15:00:00 23.2 5 Este 17 Sudeste 0 896.1 -1.4 50
2019-09-19 14:00:00 23.9 5 Sudeste 17 Sur 0 896.8 -0.7 49
2019-09-19 13:00:00 22.5 7 Sudeste 15 Sudeste 0 897.2 -0.3 56
2019-09-19 12:00:00 21.1 8 Este 15 Sudeste 0 897.5 0.3 61
2019-09-19 11:00:00 18.8 4 Sudeste 11 Nordeste 0 897.5 0.6 69
2019-09-19 10:00:00 15.3 4 Norte 11 Nordeste 0 897.5 0.9 76
2019-09-19 09:00:00 12.6 4 Este 6 Nordeste 0 897.2 0.7 89
2019-09-19 08:00:00 11.8 2 Noroeste 6 Norte 0 896.9 0.1 88
2019-09-19 07:00:00 11.8 0 Calma 6 Este 0 896.6 -0.4 90
2019-09-19 06:00:00 12.1 2 Norte 5 Noroeste 0 896.5 -0.9 88
2019-09-19 05:00:00 12.5 2 Norte 6 Nordeste 0 896.8 -0.6 87
2019-09-19 04:00:00 12.6 3 Norte 7 Norte 0 897 -0.4 88
2019-09-19 03:00:00 13.3 3 Norte 6 Nordeste 0 897.4 0 87
2019-09-19 02:00:00 14.4 4 Nordeste 10 Norte 0 897.4 0 82
2019-09-19 01:00:00 15 2 Nordeste 8 Nordeste 0 897.4 0.2 81
2019-09-19 00:00:00 15.4 2 Nordeste 5 Este 0 897.4 0.8 76
2019-09-18 23:00:00 16.7 3 Norte 6 Norte 0 897.4 1.1 71
2019-09-18 22:00:00 17.5 3 Norte 8 Este 0 897.2 1.2 70
2019-09-18 21:00:00 18.4 3 Noroeste 11 Noroeste 0 896.6 0.7 63
2019-09-18 20:00:00 19.3 5 Norte 17 Noroeste 0 896.3 0.6 62
2019-09-18 19:00:00 21.8 5 Norte 15 Norte 0 896 -0.1 49
2019-09-18 18:00:00 21.6 6 Nordeste 23 Norte 0 895.9 -0.5 52
2019-09-18 17:00:00 24.1 5 Noroeste 19 Oeste 0 895.7 -1 46
2019-09-18 16:00:00 24.2 9 Sudoeste 17 Sudoeste 0 896.1 -0.8 46
2019-09-18 15:00:00 23.3 5 Sur 16 Sudeste 0 896.4 -0.5 48
2019-09-18 14:00:00 22 6 Sur 14 Sur 0 896.7 -0.3 49
2019-09-18 13:00:00 20.6 5 Sudeste 13 Sudeste 0 896.9 0.1 58
2019-09-18 12:00:00 20 6 Sudeste 13 Sudeste 0 896.9 0.7 62
2019-09-18 11:00:00 17.6 3 Noroeste 8 Norte 0 897 1.4 72
2019-09-18 10:00:00 14.8 3 Norte 7 Nordeste 0 896.8 1.8 85
2019-09-18 09:00:00 12.5 2 Noroeste 6 Oeste 0 896.2 1.2 94
2019-09-18 08:00:00 11.8 3 Sudoeste 8 Nordeste 0 895.6 0.9 94
2019-09-18 07:00:00 12.5 2 Sudoeste 5 Oeste 0 895 -0.1 92
2019-09-18 06:00:00 12.7 0 Calma 7 Este 0 895 -1 90
2019-09-18 05:00:00 13.7 3 Noroeste 10 Norte 0 894.7 -2.3 88
2019-09-18 04:00:00 14 9 Norte 26 Nordeste 0 895.1 -3.6 89
2019-09-18 03:00:00 13.9 7 Norte 21 Norte 0.2 896 -1.6 93
2019-09-18 02:00:00 14.6 7 Norte 22 Oeste 0.6 897 0.2 91
2019-09-18 01:00:00 15.2 10 Oeste 22 Sudoeste 2 898.7 3.4 86
2019-09-18 00:00:00 16.5 6 Sudoeste 35 Sur 0 897.6 2.3 77
2019-09-17 23:00:00 18.3 13 Sur 27 Sur 0 896.8 1.6 71
2019-09-17 22:00:00 18.3 7 Nordeste 15 Nordeste 0 895.3 0.2 68
2019-09-17 21:00:00 19.5 9 Nordeste 27 Nordeste 0 895.3 0.2 59
2019-09-15 18:00:00 17.2 13 Nordeste 23 Nordeste 0.2 899.5 -0.9 78
2019-09-15 17:00:00 19.4 13 Este 28 Nordeste 0 899.2 -1.7 69
2019-09-15 16:00:00 19.3 14 Nordeste 29 Nordeste 0 899.8 -1.7 69
2019-09-15 15:00:00 16.7 9 Nordeste 27 Nordeste 0 900.4 -1.2 81
2019-09-15 14:00:00 13.7 13 Este 26 Nordeste 3 900.9 -0.4 93
2019-09-15 13:00:00 14.7 7 Este 33 Sur 9 901.5 0.2 86
2019-09-15 12:00:00 19.4 11 Sudeste 23 Sudeste 0.2 901.6 0.5 48
2019-09-15 11:00:00 19.7 11 Este 21 Este 0 901.3 0.1 41
2019-09-15 10:00:00 17 8 Nordeste 14 Nordeste 0 901.3 0.5 57
2019-09-15 09:00:00 15.3 8 Nordeste 15 Nordeste 0 901.1 0.3 66
2019-09-15 08:00:00 15 5 Nordeste 15 Nordeste 0 901.2 0.1 69
2019-09-15 07:00:00 16.1 6 Nordeste 13 Este 0 900.8 -0.7 59
2019-09-15 06:00:00 15.7 2 Nordeste 11 Nordeste 0 900.8 -1 60
2019-09-15 05:00:00 16.5 8 Nordeste 13 Nordeste 0 901.1 -0.9 56
2019-09-15 04:00:00 17 5 Norte 13 Norte 0 901.5 -0.7 55
2019-09-15 03:00:00 16.8 6 Norte 18 Este 0 901.8 -0.6 58
2019-09-15 02:00:00 16.3 3 Nordeste 11 Norte 0 902 -0.5 59
2019-09-15 01:00:00 16 8 Norte 14 Norte 0 902.2 0.1 62
2019-09-15 00:00:00 16.6 9 Nordeste 14 Norte 0 902.4 0.3 59
2019-09-14 23:00:00 16.5 3 Este 12 Nordeste 0 902.5 0.6 62
2019-09-14 22:00:00 17.2 8 Nordeste 19 Nordeste 0 902.1 -0.1 59
2019-09-14 21:00:00 18.1 10 Nordeste 19 Este 0 902.1 0.8 55
2019-09-14 20:00:00 19.2 6 Este 18 Nordeste 0.2 901.9 1.1 63
2019-09-14 19:00:00 21.4 5 Este 30 Este 0 902.2 -0.2 44
2019-09-14 18:00:00 22.2 14 Este 36 Este 0 901.3 -0.9 42
2019-09-14 17:00:00 23 16 Este 31 Sudeste 0 900.8 -1.7 39
2019-09-14 16:00:00 24.4 18 Sudeste 35 Sudeste 0 902.4 -0.6 35
2019-09-14 15:00:00 24.4 16 Este 38 Sudeste 0 902.2 -1.4 38
2019-09-14 14:00:00 24.2 17 Este 40 Este 0 902.5 -1.5 40
2019-09-14 13:00:00 22.7 15 Este 27 Este 0 903 -1 42
2019-09-14 12:00:00 21 12 Sudeste 28 Sudeste 0 903.6 -0.2 43
2019-09-14 11:00:00 18.7 12 Este 22 Este 0 904 0.4 53
2019-09-14 10:00:00 15.3 10 Nordeste 16 Nordeste 0 904 0.2 78
2019-09-14 09:00:00 13.8 9 Nordeste 14 Nordeste 0 903.8 0.3 85
2019-09-14 08:00:00 12.9 4 Nordeste 9 Nordeste 0 903.6 -0.1 87
2019-09-14 07:00:00 13.1 3 Este 9 Nordeste 0 903.8 -0.3 87
2019-09-14 06:00:00 13.9 5 Nordeste 13 Nordeste 0 903.5 -0.9 85
2019-09-14 05:00:00 14.2 8 Nordeste 17 Nordeste 0 903.7 -1.1 83
2019-09-14 04:00:00 14.7 7 Nordeste 17 Nordeste 0 904.1 -1 80
2019-09-14 03:00:00 15.3 8 Nordeste 15 Nordeste 0 904.4 -0.7 76
2019-09-14 02:00:00 15.7 8 Nordeste 15 Este 0 904.8 -0.3 74
2019-09-14 01:00:00 15.3 8 Este 19 Este 0 905.1 0.3 71
2019-09-14 00:00:00 15.8 5 Nordeste 12 Este 0 905.1 0.6 71
2019-09-13 23:00:00 15.5 5 Este 11 Nordeste 0 905.1 0.7 72
2019-09-13 22:00:00 16 8 Nordeste 17 Nordeste 0 904.8 0.2 70
2019-09-13 21:00:00 16.4 7 Nordeste 14 Este 0 904.5 -0.2 68
2019-09-13 20:00:00 17.2 9 Nordeste 18 Este 0 904.4 -0.6 66
2019-09-13 19:00:00 17.5 8 Este 22 Nordeste 0 904.6 -1.3 63
2019-09-13 18:00:00 18.2 12 Este 24 Este 0 904.7 -1.3 58
2019-09-13 17:00:00 18.6 10 Nordeste 21 Este 0 905 -0.2 55
2019-09-13 16:00:00 17.1 10 Este 26 Sudeste 0.2 905.9 0.7 67
2019-09-13 15:00:00 18.5 14 Sudeste 38 Este 0 906 0.4 52
2019-09-13 14:00:00 22.2 18 Este 37 Este 0 905.2 -0.7 35
2019-09-13 13:00:00 21.3 14 Nordeste 26 Este 0 905.2 0.1 38
2019-09-13 12:00:00 22.9 15 Este 31 Este 0 905.6 0.4 34
2019-09-13 11:00:00 21.9 16 Este 34 Este 0 905.9 0.6 38
2019-09-13 10:00:00 19.3 14 Este 24 Este 0 905.1 -0.5 50
2019-09-13 09:00:00 13.1 4 Sur 13 Norte 0 905.2 -0.8 71
2019-09-13 08:00:00 13.2 7 Nordeste 14 Nordeste 0 905.3 -0.7 73
2019-09-13 07:00:00 12.1 3 Norte 7 Norte 0 905.6 -0.3 69
2019-09-13 06:00:00 13 0 Calma 4 Nordeste 0 906 -0.3 66
2019-09-13 05:00:00 12.9 2 Oeste 8 Nordeste 0 906 -0.4 67
2019-09-13 04:00:00 13.1 3 Este 6 Nordeste 0 905.9 -0.7 67
2019-09-13 03:00:00 13.7 4 Nordeste 12 Nordeste 0 906.3 -0.2 63
2019-09-13 02:00:00 15.1 4 Nordeste 8 Nordeste 0 906.4 0 55
2019-09-13 01:00:00 15.9 4 Nordeste 10 Este 0 906.6 0.4 52
2019-09-13 00:00:00 16.6 8 Este 13 Nordeste 0 906.5 0.4 50
2019-09-12 23:00:00 17.4 5 Nordeste 14 Nordeste 0 906.4 0.4 47
2019-09-12 22:00:00 18 5 Este 14 Nordeste 0 906.2 0.3 47
2019-09-12 21:00:00 19.9 6 Nordeste 15 Nordeste 0 906.1 0.4 42
2019-09-12 20:00:00 22.5 9 Este 23 Nordeste 0 906 0.5 36
2019-09-12 19:00:00 24.6 10 Este 25 Nordeste 0 905.9 0.3 32
2019-09-12 18:00:00 24.7 11 Nordeste 26 Este 0 905.7 -0.6 33
2019-09-12 17:00:00 26.1 12 Este 24 Nordeste 0 905.5 -1.1 32
2019-09-12 16:00:00 25.8 12 Sudeste 28 Sudeste 0 905.6 -1.6 32
2019-09-12 15:00:00 25.7 13 Sudeste 24 Sudeste 0 906.3 -1.2 34
2019-09-12 14:00:00 24.6 10 Sudeste 34 Este 0 906.6 -0.5 35
2019-09-12 13:00:00 23.2 8 Sudeste 27 Este 0 907.2 0.8 40
2019-09-12 12:00:00 21.5 10 Este 21 Nordeste 0 907.5 1.7 44
2019-09-12 11:00:00 18.2 9 Nordeste 15 Nordeste 0 907.1 1.5 51
2019-09-12 10:00:00 14.4 2 Norte 8 Nordeste 0 906.4 1.3 63
2019-09-12 09:00:00 9.6 3 Noroeste 7 Nordeste 0 905.8 0.8 82
2019-09-12 08:00:00 8.3 2 Sudoeste 8 Nordeste 0 905.6 0.2 85
2019-09-12 07:00:00 8.9 3 Este 14 Norte 0 905.1 0 81
2019-09-12 06:00:00 10 8 Norte 12 Nordeste 0 905 0.1 79
2019-09-12 05:00:00 10 3 Sudoeste 8 Sur 0 905.4 0.6 79
2019-09-12 04:00:00 10.4 3 Nordeste 11 Este 0 905.1 0.2 77
2019-09-12 03:00:00 10.8 5 Norte 13 Nordeste 0 904.9 -0.1 76
2019-09-12 02:00:00 11.3 3 Norte 20 Norte 0 904.8 -0.1 74
2019-09-12 01:00:00 11.8 11 Nordeste 23 Nordeste 0 904.9 0.6 74
2019-09-12 00:00:00 12.1 11 Nordeste 23 Nordeste 0 905 1.6 71
2019-09-11 23:00:00 12.3 8 Nordeste 17 Este 0 904.9 2.3 72
2019-09-11 22:00:00 13.3 9 Nordeste 21 Nordeste 0 904.3 2.1 67
2019-09-11 21:00:00 14.4 4 Noroeste 26 Nordeste 0 903.4 1.5 61
2019-09-11 20:00:00 15.8 14 Norte 35 Nordeste 0 902.6 0.8 56
2019-09-11 19:00:00 17.7 18 Norte 35 Norte 0 902.2 0.6 50
2019-09-11 18:00:00 19.1 19 Norte 38 Nordeste 0 901.9 0.4 45
2019-09-11 17:00:00 19.2 18 Norte 40 Norte 0 901.8 0.6 44
2019-09-11 16:00:00 18.6 25 Nordeste 44 Nordeste 0 901.6 -0.1 45
2019-09-11 15:00:00 18.8 21 Norte 56 Nordeste 0 901.5 -0.4 46
2019-09-11 14:00:00 18 28 Norte 52 Nordeste 0 901.2 -0.1 47
2019-09-11 13:00:00 17 24 Norte 54 Norte 0 901.7 1.5 49
2019-09-11 12:00:00 16 25 Nordeste 44 Nordeste 0 901.9 2.5 52
2019-09-11 11:00:00 14.3 26 Norte 52 Nordeste 0 901.3 2.7 57
2019-09-11 10:00:00 13.5 26 Norte 57 Norte 0 900.2 2 62
2019-09-11 09:00:00 12.1 25 Norte 51 Nordeste 0 899.4 1.6 68
2019-09-11 08:00:00 11.4 26 Nordeste 45 Nordeste 0 898.6 1.4 70
2019-09-11 07:00:00 11.3 12 Norte 39 Norte 0 898.2 1 76
2019-09-11 06:00:00 11.5 23 Nordeste 44 Norte 0 897.8 -0.1 70
2019-09-11 05:00:00 10.8 19 Norte 45 Nordeste 0 897.2 -0.5 78
2019-09-11 04:00:00 10.1 12 Norte 30 Norte 0 897.2 -0.2 81
2019-09-11 03:00:00 10.4 8 Norte 30 Norte 0 897.9 0.9 75
2019-09-11 02:00:00 10.3 10 Norte 36 Nordeste 0 897.7 1 71
2019-09-11 01:00:00 10.3 13 Norte 37 Nordeste 0 897.4 1.2 70
2019-09-11 00:00:00 9.9 18 Norte 44 Nordeste 0 897 1.4 72
2019-09-10 23:00:00 9.7 17 Norte 45 Nordeste 0 896.7 2.5 71
2019-09-10 22:00:00 10.3 14 Norte 37 Norte 0 896.2 2 72
2019-09-10 21:00:00 10.3 16 Nordeste 35 Nordeste 0 895.6 1.9 72
2019-09-10 20:00:00 10.4 12 Norte 41 Norte 0 894.2 0.5 74
2019-09-10 19:00:00 11.1 10 Norte 30 Norte 0.2 894.2 0.6 76
2019-09-10 18:00:00 11.6 7 Norte 30 Noroeste 0 893.7 0.2 78
2019-09-10 17:00:00 10 5 Norte 22 Norte 1.6 893.7 0.5 79
2019-09-10 16:00:00 12.8 9 Noroeste 34 Nordeste 0 893.6 0.5 64
2019-09-10 15:00:00 13.8 12 Norte 29 Norte 0 893.5 -0.1 50
2019-09-10 14:00:00 13.9 9 Norte 35 Noroeste 0 893.2 -0.2 47
2019-09-10 13:00:00 14.5 7 Norte 23 Oeste 0 893.1 0 45
2019-09-10 12:00:00 11.9 8 Noroeste 19 Oeste 0 893.6 1 58
2019-09-10 11:00:00 12.9 10 Norte 25 Norte 0 893.4 1 49
2019-09-10 10:00:00 11.9 6 Noroeste 20 Norte 0 893.1 1.4 51
2019-09-10 09:00:00 9.4 8 Noroeste 29 Norte 0 892.6 1 59
2019-09-10 08:00:00 8.7 9 Norte 25 Nordeste 0 892.4 0.7 64
2019-09-10 07:00:00 9.2 7 Norte 27 Noroeste 0 891.7 0.2 63
2019-09-10 06:00:00 10.2 9 Noroeste 28 Nordeste 0 891.6 -0.5 59
2019-09-10 05:00:00 11.1 9 Norte 21 Nordeste 0 891.7 -0.5 73
2019-09-10 04:00:00 12.8 6 Norte 14 Norte 0 891.5 -0.8 66
2019-09-10 03:00:00 12.5 5 Norte 16 Nordeste 0 892.1 0.1 67
2019-09-10 02:00:00 12.9 8 Nordeste 28 Nordeste 0 892.2 0.3 70
2019-09-10 01:00:00 13.3 11 Este 26 Este 0 892.3 0.3 71
2019-09-10 00:00:00 14.7 8 Nordeste 15 Nordeste 0 892 0.2 64
2019-09-09 23:00:00 16.4 4 Norte 14 Nordeste 0 891.9 0.2 53
2019-09-09 22:00:00 19.8 4 Oeste 15 Oeste 0 892 0.5 27
2019-09-09 21:00:00 21 12 Oeste 25 Oeste 0 891.8 0 25
2019-09-09 20:00:00 22.4 19 Oeste 39 Oeste 0 891.7 -0.3 20
2019-09-09 19:00:00 23.5 16 Oeste 40 Oeste 0 891.5 -1.1 24
2019-09-09 18:00:00 24.1 15 Oeste 36 Oeste 0 891.8 -1.5 24
2019-09-09 17:00:00 25.1 17 Oeste 39 Oeste 0 892 -2 22
2019-09-09 16:00:00 25.9 18 Oeste 35 Oeste 0 892.6 -2.1 21
2019-09-09 15:00:00 25.2 24 Oeste 40 Oeste 0 893.3 -1.9 21
2019-09-09 14:00:00 24.4 18 Oeste 42 Oeste 0 894 -1.7 24
2019-09-09 13:00:00 23.5 11 Oeste 28 Oeste 0 894.7 -1.3 28
2019-09-09 12:00:00 21.6 8 Sur 18 Sur 0 895.2 -0.8 39
2019-09-09 11:00:00 17.5 5 Sur 11 Sudeste 0 895.7 -0.3 55
2019-09-09 10:00:00 13.2 2 Nordeste 6 Este 0 896 0.3 68
2019-09-09 09:00:00 8.2 3 Este 5 Sudeste 0 896 0.1 90
2019-09-09 08:00:00 7.3 2 Noroeste 4 Norte 0 896 -0.4 90
2019-09-09 07:00:00 7.6 3 Este 6 Nordeste 0 895.7 -1 85
2019-09-09 06:00:00 8.3 2 Noroeste 7 Norte 0 895.9 -0.9 87
2019-09-09 05:00:00 8.8 0 Calma 7 Norte 0 896.4 -0.9 83
2019-09-09 04:00:00 8.8 0 Calma 5 Noroeste 0 896.7 -0.6 81
2019-09-09 03:00:00 10.1 0 Calma 4 Noroeste 0 896.8 -0.6 75
2019-09-09 02:00:00 11.3 4 Nordeste 8 Nordeste 0 897.3 0 70
2019-09-09 01:00:00 11.9 3 Noroeste 4 Noroeste 0 897.3 0 68
2019-09-09 00:00:00 12.7 0 Calma 4 Norte 0 897.4 0.6 66
2019-09-08 23:00:00 13.6 3 Nordeste 12 Este 0 897.3 1.2 63
2019-09-08 22:00:00 14.9 8 Este 18 Este 0 897.3 1.3 59
2019-09-08 21:00:00 16.9 8 Nordeste 20 Nordeste 0 896.8 0.9 55
2019-09-08 20:00:00 19.8 12 Nordeste 26 Este 0 896.1 0.1 49
2019-09-08 19:00:00 22.2 13 Este 24 Este 0 896 -0.4 43
2019-09-08 18:00:00 23.5 14 Este 25 Este 0 895.9 -0.9 40
2019-09-08 17:00:00 24.7 14 Este 23 Este 0 896 -1.1 37
2019-09-08 16:00:00 24.6 7 Sudoeste 17 Este 0 896.4 -0.9 31
2019-09-08 15:00:00 23.6 6 Este 19 Este 0 896.8 -1.1 34
2019-09-08 14:00:00 22.9 6 Este 15 Nordeste 0 897.1 -1 36
2019-09-08 13:00:00 21.6 5 Sudeste 16 Este 0 897.3 -0.9 37
2019-09-08 12:00:00 20.2 8 Este 15 Este 0 897.9 -0.3 39
2019-09-08 11:00:00 18.2 7 Este 15 Nordeste 0 898.1 0 53
2019-09-08 10:00:00 14.1 6 Nordeste 11 Este 0 898.2 0.2 64
2019-09-08 09:00:00 9.6 3 Norte 12 Nordeste 0 898.2 0.1 77
2019-09-08 08:00:00 8.8 8 Nordeste 11 Nordeste 0 898.1 -0.1 76
2019-09-08 07:00:00 9.4 5 Nordeste 15 Nordeste 0 898 -0.2 82
2019-09-08 06:00:00 9.4 0 Calma 5 Sur 0 898.1 -0.5 81
2019-09-08 05:00:00 9.9 4 Sur 10 Sur 0 898.2 -0.5 79
2019-09-08 04:00:00 10 5 Este 9 Este 0 898.2 -0.7 78
2019-09-08 03:00:00 10.4 5 Este 13 Nordeste 0 898.6 -0.5 76
2019-09-08 02:00:00 10.7 6 Este 13 Nordeste 0 898.7 -0.3 74
2019-09-08 01:00:00 11.5 6 Nordeste 18 Nordeste 0 898.9 0.3 72
2019-09-08 00:00:00 12.5 10 Nordeste 24 Nordeste 0 899.1 0.9 69
2019-09-07 23:00:00 13.1 17 Nordeste 31 Nordeste 0 899 1 68
2019-09-07 22:00:00 14.4 17 Nordeste 32 Nordeste 0 898.6 0.7 62
2019-09-07 21:00:00 16.2 18 Nordeste 34 Nordeste 0 898.2 0.2 48
2019-09-07 20:00:00 18.3 16 Nordeste 27 Nordeste 0 898 -0.1 37
2019-09-07 19:00:00 20.7 14 Nordeste 25 Nordeste 0 897.9 -0.4 32
2019-09-07 18:00:00 21.1 14 Nordeste 28 Nordeste 0 898 -0.8 28
2019-09-07 17:00:00 22 15 Nordeste 27 Nordeste 0 898.1 -1.1 25
2019-09-07 16:00:00 22 12 Nordeste 23 Este 0 898.3 -1 25
2019-09-07 15:00:00 21.7 11 Nordeste 26 Nordeste 0 898.8 -0.9 25
2019-09-07 14:00:00 21.6 12 Este 25 Este 0 899.2 -0.7 26
2019-09-07 13:00:00 19.7 10 Nordeste 23 Nordeste 0 899.3 -0.7 29
2019-09-07 12:00:00 18.3 12 Nordeste 22 Este 0 899.7 -0.3 31
2019-09-07 11:00:00 16 13 Nordeste 23 Nordeste 0 899.9 0.1 39
2019-09-07 10:00:00 13.2 13 Nordeste 21 Nordeste 0 900 0.4 48
2019-09-07 09:00:00 8.6 6 Este 11 Este 0 900 0.6 70
2019-09-07 08:00:00 7 6 Este 14 Este 0 899.8 0 75
2019-09-07 07:00:00 7.9 6 Nordeste 19 Nordeste 0 899.6 -0.3 70
2019-09-07 06:00:00 9 11 Nordeste 22 Nordeste 0 899.4 -0.8 66
2019-09-07 05:00:00 9.1 13 Nordeste 30 Nordeste 0 899.8 -0.4 68
2019-09-07 04:00:00 9.3 15 Nordeste 31 Nordeste 0 899.9 -0.4 66
2019-09-07 03:00:00 9.2 9 Nordeste 33 Nordeste 0 900.2 -0.1 66
2019-09-07 02:00:00 9.7 14 Nordeste 30 Nordeste 0 900.2 0.2 61
2019-09-07 01:00:00 10 16 Nordeste 28 Nordeste 0 900.3 0.6 58
2019-09-07 00:00:00 10.2 12 Nordeste 25 Nordeste 0 900.3 1.1 61
2019-09-06 23:00:00 10.4 11 Nordeste 28 Este 0 900 1.2 62
2019-09-06 22:00:00 11.5 9 Este 28 Norte 0 899.7 1 57
2019-09-06 21:00:00 13.1 21 Nordeste 37 Nordeste 0 899.2 0.4 51
2019-09-06 20:00:00 15.5 20 Nordeste 44 Nordeste 0 898.8 -0.1 45
2019-09-06 19:00:00 17.8 21 Norte 39 Norte 0 898.7 -0.4 37
2019-09-06 18:00:00 19.5 19 Nordeste 40 Nordeste 0 898.8 -0.8 33
2019-09-06 17:00:00 19.9 20 Nordeste 34 Nordeste 0 898.9 -1 33
2019-09-06 16:00:00 20 16 Nordeste 29 Norte 0 899.1 -0.9 29
2019-09-06 15:00:00 19.8 15 Nordeste 32 Nordeste 0 899.6 -0.9 30
2019-09-06 14:00:00 19.1 15 Nordeste 35 Nordeste 0 899.9 -0.6 32
2019-09-06 13:00:00 18 12 Norte 30 Norte 0 900 -0.4 33
2019-09-06 12:00:00 15.9 15 Norte 33 Nordeste 0 900.5 0.5 43
2019-09-06 11:00:00 14.7 15 Norte 36 Norte 0 900.5 0.9 48
2019-09-06 10:00:00 12.9 17 Norte 33 Norte 0 900.4 0.9 56
2019-09-06 09:00:00 8.9 4 Nordeste 11 Nordeste 0 900 0.4 67
2019-09-06 08:00:00 8.5 4 Nordeste 27 Nordeste 0 899.6 0 70
2019-09-06 07:00:00 8.6 12 Nordeste 26 Nordeste 0 899.5 -0.2 71
2019-09-06 06:00:00 9 13 Norte 34 Nordeste 0 899.6 -0.2 73
2019-09-06 05:00:00 8.3 15 Nordeste 24 Nordeste 0 899.6 -0.7 74
2019-09-06 04:00:00 8 5 Nordeste 7 Este 0 899.7 -0.6 70
2019-09-06 03:00:00 8.3 3 Sudeste 5 Sudeste 0 899.8 -1.2 65
2019-09-06 02:00:00 9.8 3 Norte 32 Nordeste 0 900.3 -0.7 61
2019-09-06 01:00:00 10.4 18 Norte 44 Nordeste 0 900.3 -0.4 60
2019-09-06 00:00:00 10.6 20 Nordeste 40 Nordeste 0 901 0.6 62
2019-09-05 23:00:00 10.7 10 Nordeste 29 Norte 0 901 0.5 65
2019-09-05 22:00:00 11.8 14 Norte 36 Norte 0 900.7 0.3 62
2019-09-05 21:00:00 12.8 18 Norte 37 Norte 0 900.4 0.4 57
2019-09-05 20:00:00 14.2 19 Norte 39 Nordeste 0 900.5 0.4 53
2019-09-05 19:00:00 16.3 21 Norte 45 Norte 0 900.4 -0.3 47
2019-09-05 18:00:00 18.3 16 Norte 40 Norte 0 900 -1.1 43
2019-09-05 17:00:00 18.8 19 Norte 41 Norte 0 900.1 -1.1 37
2019-09-05 16:00:00 18.4 24 Nordeste 41 Nordeste 0 900.7 -0.9 35
2019-09-05 15:00:00 18.9 13 Norte 37 Norte 0 901.1 -0.3 36
2019-09-05 14:00:00 17.7 19 Nordeste 44 Nordeste 0 901.2 -0.1 41
2019-09-05 13:00:00 16.8 21 Norte 44 Nordeste 0 901.6 0.4 46
2019-09-05 12:00:00 16.4 22 Norte 45 Nordeste 0 901.4 0.5 48
2019-09-05 11:00:00 15.3 17 Norte 40 Norte 0 901.3 0.8 50
2019-09-05 10:00:00 14.5 20 Norte 39 Norte 0 901.2 1.2 60
2019-09-05 09:00:00 13.2 19 Norte 40 Nordeste 0 900.9 1.2 65
2019-09-05 08:00:00 12 9 Norte 28 Nordeste 0 900.5 1.1 80
2019-09-05 07:00:00 12.1 18 Nordeste 36 Norte 0 900 0.4 82
2019-09-05 06:00:00 12.7 16 Nordeste 32 Norte 0 899.7 0 77
2019-09-05 05:00:00 13.1 13 Nordeste 27 Nordeste 0 899.4 -0.3 71
2019-09-05 04:00:00 12.7 14 Nordeste 31 Norte 0 899.6 -0.1 63
2019-09-05 03:00:00 12.1 10 Norte 24 Nordeste 0 899.7 0 67
2019-09-05 02:00:00 12.4 10 Nordeste 26 Nordeste 0 899.7 0.2 66
2019-09-05 01:00:00 13 11 Nordeste 34 Nordeste 0 899.7 0.1 67
2019-09-05 00:00:00 14.1 17 Nordeste 40 Nordeste 0 899.7 0.6 65
2019-09-04 23:00:00 14.7 13 Nordeste 29 Nordeste 0 899.5 0.9 65
2019-09-04 22:00:00 15.7 10 Nordeste 26 Nordeste 0 899.6 1.3 62
2019-09-04 21:00:00 17.4 13 Nordeste 46 Nordeste 0 899.1 1 58
2019-09-04 20:00:00 20.2 19 Nordeste 41 Nordeste 0 898.6 0.4 47
2019-09-04 19:00:00 23.1 23 Nordeste 37 Nordeste 0 898.3 0.1 35
2019-09-04 18:00:00 25.2 20 Nordeste 35 Nordeste 0 898.1 -0.5 27
2019-09-04 17:00:00 26.9 18 Nordeste 32 Nordeste 0 898.2 -0.5 21
2019-09-04 16:00:00 28.4 15 Nordeste 33 Este 0 898.2 -1 14
2019-09-04 15:00:00 28.4 12 Nordeste 25 Nordeste 0 898.6 -0.9 10
2019-09-04 14:00:00 27.6 6 Norte 17 Norte 0 898.7 -1 15
2019-09-04 13:00:00 26.2 7 Norte 15 Nordeste 0 899.2 -0.6 18
2019-09-04 12:00:00 23.9 5 Sur 9 Sudeste 0 899.5 -0.2 33
2019-09-04 11:00:00 20.9 3 Sudoeste 5 Norte 0 899.7 0.1 39
2019-09-04 10:00:00 15.6 3 Noroeste 8 Noroeste 0 899.8 0.4 59
2019-09-04 09:00:00 10.6 3 Norte 8 Norte 0 899.7 0.2 77
2019-09-04 08:00:00 9.2 2 Norte 5 Norte 0 899.6 -0.1 80
2019-09-04 07:00:00 9.9 3 Norte 7 Noroeste 0 899.4 -0.7 79
2019-09-04 06:00:00 9.5 0 Calma 3 Noroeste 0 899.5 -0.9 79
2019-09-04 05:00:00 10.3 2 Norte 6 Noroeste 0 899.7 -0.8 74
2019-09-04 04:00:00 10.8 0 Calma 5 Noroeste 0 900.1 -0.4 74
2019-09-04 03:00:00 11.7 0 Calma 4 Este 0 900.4 -0.3 70
2019-09-04 02:00:00 13.1 3 Este 5 Este 0 900.5 -0.3 65
2019-09-04 01:00:00 14.8 2 Este 5 Noroeste 0 900.5 0 58
2019-09-04 00:00:00 16.4 2 Noroeste 6 Nordeste 0 900.7 0.8 51
2019-09-03 23:00:00 17.9 4 Este 7 Este 0 900.8 1.3 47
2019-09-03 22:00:00 19.3 2 Sur 10 Nordeste 0 900.5 1.3 45
2019-09-03 21:00:00 21.2 7 Nordeste 13 Nordeste 0 899.9 0.9 38
2019-09-03 20:00:00 24.9 8 Nordeste 22 Nordeste 0 899.5 0.1 30
2019-09-03 19:00:00 27.5 11 Nordeste 22 Nordeste 0 899.2 -0.6 25
2019-09-03 18:00:00 29.3 5 Nordeste 15 Nordeste 0 899 -1.1 17
2019-09-03 17:00:00 28.7 8 Nordeste 15 Nordeste 0 899.4 -1.1 18
2019-09-03 16:00:00 28.5 7 Sudeste 15 Sudeste 0 899.8 -1.2 19
2019-09-03 15:00:00 27.1 8 Nordeste 16 Nordeste 0 900.1 -1 20
2019-09-03 14:00:00 25.7 8 Este 16 Nordeste 0 900.5 -0.8 23
2019-09-03 13:00:00 24.2 4 Sudoeste 14 Sur 0 901 -0.4 25
2019-09-03 12:00:00 21.6 5 Sur 9 Sudoeste 0 901.1 0 31
2019-09-03 11:00:00 18.6 3 Nordeste 8 Norte 0 901.3 0.6 35
2019-09-03 10:00:00 14.2 2 Sudeste 7 Nordeste 0 901.4 1.2 52
2019-09-03 09:00:00 9 2 Norte 5 Noroeste 0 901.1 0.8 73
2019-09-03 08:00:00 7.4 3 Nordeste 6 Nordeste 0 900.7 0.3 79
2019-09-03 07:00:00 8.3 0 Calma 6 Norte 0 900.2 -0.3 75
2019-09-03 06:00:00 8.8 3 Nordeste 6 Nordeste 0 900.3 -0.5 72
2019-09-03 05:00:00 9.8 3 Nordeste 9 Nordeste 0 900.4 -0.5 69
2019-09-03 04:00:00 10.6 5 Nordeste 15 Nordeste 0 900.5 -0.1 67
2019-09-03 03:00:00 10.8 8 Nordeste 12 Este 0 900.8 0.2 69
2019-09-03 02:00:00 11.3 7 Nordeste 14 Nordeste 0 900.9 0.2 69
2019-09-03 01:00:00 12.4 8 Nordeste 29 Nordeste 0 900.6 0.5 66
2019-09-03 00:00:00 13.1 14 Nordeste 28 Nordeste 0 900.6 1.3 66
2019-09-02 23:00:00 14.1 14 Nordeste 26 Nordeste 0 900.7 1.9 63
2019-09-02 22:00:00 14.9 12 Nordeste 27 Nordeste 0 900.1 1.6 60
2019-09-02 21:00:00 16.6 14 Nordeste 30 Nordeste 0 899.3 0.8 53
2019-09-02 20:00:00 19.1 14 Nordeste 29 Nordeste 0 898.8 0.1 46
2019-09-02 19:00:00 21.7 15 Nordeste 30 Nordeste 0 898.5 -0.5 38
2019-09-02 18:00:00 22.7 15 Nordeste 32 Nordeste 0 898.5 -0.7 36
2019-09-02 17:00:00 23.4 15 Nordeste 28 Este 0 898.7 -0.8 35
2019-09-02 16:00:00 23.6 11 Nordeste 22 Nordeste 0 899 -0.7 30
2019-09-02 15:00:00 22.6 12 Nordeste 23 Nordeste 0 899.2 -0.7 33
2019-09-02 14:00:00 21.3 10 Nordeste 26 Nordeste 0 899.5 -0.4 38
2019-09-02 13:00:00 19.4 15 Nordeste 29 Nordeste 0 899.7 0.2 46
2019-09-02 12:00:00 18 17 Nordeste 30 Nordeste 0 899.9 0.8 52
2019-09-02 11:00:00 16.4 15 Nordeste 35 Nordeste 0 899.9 1.2 59
2019-09-02 10:00:00 14.4 19 Nordeste 30 Nordeste 0 899.5 1 66
2019-09-02 09:00:00 12.7 10 Nordeste 25 Nordeste 0 899.1 1 75
2019-09-02 08:00:00 11.6 11 Nordeste 24 Nordeste 0 898.7 0.7 80
2019-09-02 07:00:00 11.3 7 Nordeste 16 Este 0 898.5 0.2 87
2019-09-02 06:00:00 11.7 6 Este 11 Nordeste 0 898.1 -0.3 85
2019-09-02 05:00:00 12.8 8 Nordeste 23 Norte 0 898 -0.6 82
2019-09-02 04:00:00 13.3 12 Nordeste 24 Nordeste 0 898.3 0 82
2019-09-02 03:00:00 14.2 15 Nordeste 33 Nordeste 0 898.4 0 78
2019-09-02 02:00:00 14.4 12 Nordeste 32 Nordeste 0 898.6 0.3 79
2019-09-02 01:00:00 14.9 17 Nordeste 32 Nordeste 0 898.3 0.4 77
2019-09-02 00:00:00 15.6 15 Nordeste 36 Nordeste 0 898.4 1.2 76
2019-09-01 23:00:00 16.1 17 Nordeste 41 Nordeste 0 898.3 2.1 75
2019-09-01 22:00:00 16.4 21 Nordeste 38 Nordeste 0 897.9 2.5 73
2019-09-01 21:00:00 16.8 21 Nordeste 39 Norte 0 897.2 2 71
2019-09-01 20:00:00 18.5 21 Nordeste 39 Nordeste 0 896.2 1 70
2019-09-01 19:00:00 21.5 15 Nordeste 32 Nordeste 0 895.4 0.2 59
2019-09-01 18:00:00 21.1 15 Nordeste 30 Nordeste 0 895.2 0.2 60
2019-09-01 17:00:00 21.9 16 Nordeste 33 Nordeste 0 895.2 -0.2 59
2019-09-01 16:00:00 23.6 15 Nordeste 31 Nordeste 0 895.2 -0.6 56
2019-09-01 15:00:00 25.6 15 Nordeste 26 Nordeste 0 895 -1.1 50
2019-09-01 14:00:00 26.6 5 Sur 15 Este 0 895.4 -0.9 40
2019-09-01 13:00:00 25.6 6 Sur 12 Sur 0 895.8 -0.1 47
2019-09-01 12:00:00 23.8 5 Sur 11 Este 0 896.1 0.4 51
2019-09-01 11:00:00 21.6 6 Este 10 Este 0 896.3 0.7 58
2019-09-01 10:00:00 18.2 3 Sudeste 9 Este 0 895.9 0.6 75
2019-09-01 09:00:00 15.6 3 Nordeste 8 Nordeste 0 895.7 0.4 79
2019-09-01 08:00:00 14.4 3 Sudeste 4 Sudeste 0 895.6 -0.1 84
2019-09-01 07:00:00 14.8 0 Calma 6 Norte 0 895.3 -0.7 81
2019-09-01 06:00:00 15.6 3 Norte 7 Norte 0 895.3 -0.9 85
2019-09-01 05:00:00 16 0 Calma 12 Nordeste 0 895.7 -0.7 82
2019-09-01 04:00:00 16.8 7 Nordeste 13 Nordeste 0 896 -0.4 78
2019-09-01 03:00:00 17 0 Calma 5 Nordeste 0 896.2 0 73
2019-09-01 02:00:00 18.3 6 Nordeste 12 Nordeste 0 896.4 0.1 67
2019-09-01 01:00:00 18.6 4 Norte 10 Nordeste 0 896.4 0.4 67
2019-09-01 00:00:00 19.9 6 Nordeste 19 Nordeste 0 896.2 0.6 61
2019-08-31 23:00:00 21.3 11 Nordeste 19 Nordeste 0 896.3 0.9 56
2019-08-31 22:00:00 22 3 Norte 7 Norte 0 896 0.6 54
2019-08-31 21:00:00 23.6 0 Calma 14 Nordeste 0 895.6 0.6 46
2019-08-31 20:00:00 24 5 Este 24 Sur 0.4 895.4 0 43
2019-08-31 19:00:00 26.4 5 Nordeste 12 Este 0 895.4 -0.5 35
2019-08-31 18:00:00 27.9 4 Norte 17 Nordeste 0 895 -1.4 36
2019-08-31 17:00:00 27.2 8 Este 26 Nordeste 0 895.4 -1.7 36
2019-08-31 16:00:00 31.4 6 Sur 25 Sur 0 895.9 -1.7 23
2019-08-31 15:00:00 30.5 10 Sur 23 Oeste 0 896.4 -1.5 25
2019-08-31 14:00:00 29.6 10 Sudoeste 20 Sudoeste 0 897.1 -1 29
2019-08-31 13:00:00 27.8 6 Sudeste 12 Sur 0 897.6 -0.5 36
2019-08-31 12:00:00 25.5 4 Sur 9 Sur 0 897.9 -0.1 41
2019-08-31 11:00:00 22.5 5 Sur 7 Sur 0 898.1 0.2 52
2019-08-31 10:00:00 18.6 0 Calma 9 Este 0 898.1 0.5 67
2019-08-31 09:00:00 15.2 4 Nordeste 8 Nordeste 0 898 0.5 80
2019-08-31 08:00:00 14.1 2 Noroeste 5 Norte 0 897.9 -0.1 80
2019-08-31 07:00:00 14.8 3 Norte 5 Sudoeste 0 897.6 -0.6 77
2019-08-31 06:00:00 15.4 3 Norte 5 Norte 0 897.5 -1.2 75
2019-08-31 05:00:00 15.5 3 Este 6 Este 0 898 -1 74
2019-08-31 04:00:00 15.9 3 Norte 6 Este 0 898.2 -1.3 71
2019-08-31 03:00:00 16.2 2 Este 7 Norte 0 898.7 -1.2 72
2019-08-31 02:00:00 17 3 Norte 8 Norte 0 899 -0.9 67
2019-08-31 01:00:00 17.8 2 Sudoeste 9 Nordeste 0 899.5 -0.1 65
2019-08-31 00:00:00 19.7 3 Noroeste 9 Sur 0 899.9 0.7 55
2019-08-30 23:00:00 19.9 0 Calma 12 Sur 0 899.9 0.8 52
2019-08-30 22:00:00 20.7 4 Este 15 Sudeste 0 899.6 0.4 50
2019-08-30 21:00:00 22.4 3 Noroeste 17 Oeste 0 899.2 0.2 43
2019-08-30 20:00:00 22.9 7 Sudoeste 21 Sur 0 899.1 0 42
2019-08-30 19:00:00 23.9 11 Sur 30 Sudoeste 0 899.2 0.3 42
2019-08-30 18:00:00 25.8 14 Oeste 24 Sudoeste 0 899 -0.5 33
2019-08-30 17:00:00 26.1 9 Norte 26 Noroeste 0 899.1 -1.1 34
2019-08-30 16:00:00 30.4 5 Oeste 14 Sudeste 0 898.9 -2.1 26
2019-08-30 15:00:00 30.7 7 Sur 16 Sur 0 899.5 -1.7 30
2019-08-30 14:00:00 29.4 7 Sudeste 18 Sudoeste 0 900.2 -1.2 34
2019-08-30 13:00:00 27.8 5 Sur 18 Sur 0 901 -0.1 40
2019-08-30 12:00:00 26 5 Sudeste 10 Sur 0 901.2 0.1 42
2019-08-30 11:00:00 23.3 3 Este 9 Nordeste 0 901.4 0.5 47
2019-08-30 10:00:00 19 4 Nordeste 6 Este 0 901.1 0.5 61
2019-08-30 09:00:00 14.4 3 Este 5 Este 0 901.1 0.7 83
2019-08-30 08:00:00 13.5 2 Noroeste 4 Sudeste 0 900.9 0.6 82
2019-08-30 07:00:00 13.9 0 Calma 5 Norte 0 900.6 0.1 80
2019-08-30 06:00:00 13.9 3 Nordeste 6 Nordeste 0 900.4 -0.3 86
2019-08-30 05:00:00 14.9 4 Norte 10 Noroeste 0 900.3 -0.8 81
2019-08-30 04:00:00 15.3 2 Norte 6 Norte 0 900.5 -0.9 79
2019-08-30 03:00:00 15.5 3 Este 5 Sudeste 0 900.7 -0.4 80
2019-08-30 02:00:00 16.7 3 Norte 6 Noroeste 0 901.1 0.6 75
2019-08-30 01:00:00 18.2 3 Noroeste 9 Sudeste 0 901.4 1.6 67
2019-08-30 00:00:00 19.5 7 Sur 19 Este 0 901.1 1.7 58
2019-08-29 23:00:00 19.5 0 Calma 9 Sur 0 900.5 0.8 61
2019-08-29 22:00:00 20.3 5 Nordeste 16 Nordeste 0 899.8 0.7 57
2019-08-29 21:00:00 21.9 3 Norte 14 Sudoeste 0 899.4 0.7 53
2019-08-29 20:00:00 21.5 9 Sudoeste 26 Sudoeste 0.2 899.7 1.2 54
2019-08-29 19:00:00 23.4 10 Sudeste 23 Sudeste 0 899.1 0.2 49
2019-08-29 18:00:00 24.7 11 Este 26 Nordeste 0 898.7 -0.5 46
2019-08-29 17:00:00 28.5 8 Norte 22 Sur 0 898.5 -1.2 34
2019-08-29 16:00:00 30.6 13 Sur 24 Sur 0 898.9 -1.1 27
2019-08-29 15:00:00 29.9 11 Sur 20 Sudoeste 0 899.2 -- 27
2019-08-29 14:00:00 28.7 8 Oeste 15 Sur 0 899.7 -0.4 31
2019-08-29 13:00:00 27.4 7 Sur -- -- 0 900 0 40
2019-08-29 12:00:00 -- -- -- -- -- -- -- -- --
2019-08-29 11:00:00 23.2 4 Este 12 Este 0 900.1 0.7 54
2019-08-29 10:00:00 19.7 6 Nordeste 11 Nordeste 0 900 1.1 62
2019-08-29 09:00:00 15 4 Este 6 Sudeste 0 899.8 1.1 84
2019-08-29 08:00:00 13.4 2 Este 6 Nordeste 0 899.4 0.6 87
2019-08-29 07:00:00 13.8 4 Este 7 Este 0 898.9 0 85
2019-08-29 06:00:00 14.5 3 Norte 8 Este 0 898.7 -0.1 82
2019-08-29 05:00:00 14.7 3 Norte 5 Norte 0 898.8 0 81
2019-08-29 04:00:00 15.2 3 Este 6 Este 0 898.9 0.2 83
2019-08-29 03:00:00 16.7 0 Calma 4 Este 0 898.8 0.2 76
2019-08-29 02:00:00 17.1 2 Sudeste 7 Nordeste 0 898.8 0.5 76
2019-08-29 01:00:00 18.7 0 Calma 8 Nordeste 0 898.7 0.9 67
2019-08-29 00:00:00 19.4 5 Nordeste 11 Nordeste 0 898.6 1.4 66
2019-08-28 23:00:00 20.4 4 Nordeste 8 Nordeste 0 898.3 1.6 59
2019-08-28 22:00:00 21.4 4 Este 12 Nordeste 0 897.8 1.3 59
2019-08-28 21:00:00 23.3 9 Este 17 Este 0 897.2 0.7 51
2019-08-28 20:00:00 26.4 12 Este 21 Este 0 896.7 0.1 43
2019-08-28 19:00:00 28 10 Este 22 Nordeste 0 896.5 -0.3 37
2019-08-28 18:00:00 29.6 5 Sur 17 Sur 0 896.5 -0.6 31
2019-08-28 17:00:00 29.2 4 Sudeste 17 Sudoeste 0 896.6 -0.8 31
2019-08-28 16:00:00 27.6 7 Sudeste 15 Sudeste 0 896.8 -0.7 34
2019-08-28 15:00:00 27 5 Sudeste 21 Oeste 0 897.1 -0.7 36
2019-08-28 14:00:00 27 6 Sur 17 Sudoeste 0 897.4 -0.5 37
2019-08-28 13:00:00 25.5 7 Sur 13 Sur 0 897.5 -0.4 43
2019-08-28 12:00:00 23.4 6 Sudoeste 12 Oeste 0 897.8 0 52
2019-08-28 11:00:00 21.2 3 Sudeste 6 Este 0 897.9 0.2 61
2019-08-28 10:00:00 17.9 3 Noroeste 8 Nordeste 0 897.9 0.3 70
2019-08-28 09:00:00 14.1 3 Noroeste 6 Norte 0 897.8 0.3 88
2019-08-28 08:00:00 12.1 0 Calma 5 Este 0 897.7 0.3 93
2019-08-28 07:00:00 12.4 2 Norte 6 Norte 0 897.6 0.1 90
2019-08-28 06:00:00 12.3 0 Calma 6 Este 0 897.5 0 91
2019-08-28 05:00:00 12.9 4 Sudeste 7 Nordeste 0 897.4 -0.2 88
2019-08-28 04:00:00 13.4 0 Calma 7 Nordeste 0 897.5 -0.3 88
2019-08-28 03:00:00 14.8 2 Este 6 Nordeste 0 897.5 -0.1 84
2019-08-28 02:00:00 15.2 0 Calma 6 Nordeste 0 897.6 0.1 83
2019-08-28 01:00:00 16.1 2 Nordeste 8 Norte 0 897.8 0.6 77
2019-08-28 00:00:00 16.5 3 Norte 7 Nordeste 0 897.6 1.2 74
2019-08-27 23:00:00 17.3 4 Nordeste 13 Nordeste 0 897.5 1.6 73
2019-08-27 22:00:00 18.6 5 Nordeste 12 Nordeste 0 897.2 1.7 70
2019-08-27 21:00:00 19.9 7 Nordeste 16 Nordeste 0 896.4 0.9 64
2019-08-27 20:00:00 21 9 Nordeste 16 Este 0 895.9 0.5 56
2019-08-27 19:00:00 23.4 6 Este 13 Este 0 895.5 -0.2 47
2019-08-27 18:00:00 23.6 6 Sur 11 Este 0 895.5 -0.4 43
2019-08-27 17:00:00 23.3 6 Este 17 Este 0 895.4 -0.7 41
2019-08-27 16:00:00 23.6 5 Sudoeste 16 Sudeste 0 895.7 -0.7 38
2019-08-27 15:00:00 22.8 5 Sur 16 Este 0 895.9 -0.5 46
2019-08-27 14:00:00 22.9 9 Este 19 Sudeste 0 896.1 -0.3 48
2019-08-27 13:00:00 22.4 6 Sur 14 Sur 0 896.4 0.3 46
2019-08-27 12:00:00 20.8 3 Nordeste 9 Oeste 0 896.4 0.8 56
2019-08-27 11:00:00 18.5 2 Sur 10 Este 0 896.4 1.2 68
2019-08-27 10:00:00 14.6 3 Nordeste 8 Norte 0 896.1 1.1 87
2019-08-27 09:00:00 14.3 2 Norte 4 Norte 0 895.6 0.4 89
2019-08-27 08:00:00 13 2 Noroeste 10 Noroeste 0 895.2 0.2 93
2019-08-27 07:00:00 12.8 3 Norte 8 Nordeste 0 895 -0.5 94
2019-08-27 06:00:00 12.9 6 Nordeste 9 Norte 0 895.2 -0.6 92
2019-08-27 05:00:00 13.2 4 Sur 10 Sudeste 0 895 -1.6 92
2019-08-27 04:00:00 13.6 4 Este 8 Este 0 895.5 -0.2 89
2019-08-27 03:00:00 13.8 5 Nordeste 10 Oeste 0 895.8 -1.1 89
2019-08-27 02:00:00 13.9 2 Noroeste 25 Oeste 0.2 896.6 0.2 87
2019-08-27 01:00:00 13.8 14 Oeste 39 Sudoeste 1.2 895.7 0.3 86
2019-08-27 00:00:00 15.1 5 Norte 24 Noroeste 0.4 896.9 1.3 87
2019-08-26 23:00:00 15.4 8 Norte 18 Oeste 1.4 896.4 2.1 86
2019-08-26 22:00:00 15.5 8 Norte 22 Norte 0 895.4 1.7 80
2019-08-26 21:00:00 15.9 5 Norte 24 Este 13.4 895.6 1.6 85
2019-08-26 20:00:00 18.7 10 Norte 31 Norte 0.4 894.3 0.3 63
2019-08-26 19:00:00 24 10 Sudeste 29 Este 0 893.7 -0.9 40
2019-08-26 18:00:00 25.5 12 Sudeste 27 Sudeste 0 894 -1.2 35
2019-08-26 17:00:00 28.1 13 Sur 27 Sur 0 894 -1.8 28
2019-08-26 16:00:00 27.7 16 Sur 36 Sur 0 894.6 -1.5 29
2019-08-26 15:00:00 26.2 14 Sur 31 Sur 0 895.2 -1.2 29
2019-08-26 14:00:00 26 15 Sudeste 36 Sur 0 895.8 -1.4 30
2019-08-26 13:00:00 25.7 9 Sudeste 21 Sudeste 0 896.1 -0.4 29
2019-08-26 12:00:00 23.9 5 Este 13 Este 0 896.4 0.2 36
2019-08-26 11:00:00 21.2 4 Sur 12 Sur 0 897.2 1.3 44
2019-08-26 10:00:00 19.9 5 Este 15 Este 0 896.5 1 47
2019-08-26 09:00:00 17.9 6 Este 21 Sudeste 0 896.2 0.1 55
2019-08-26 08:00:00 16.8 3 Sur 8 Sur 0 895.9 -0.4 58
2019-08-26 07:00:00 17.5 4 Nordeste 9 Sudeste 0 895.5 -1.2 55
2019-08-26 06:00:00 17.7 3 Sudeste 8 Este 0 896.1 -0.4 56
2019-08-26 05:00:00 19.2 4 Este 10 Este 0 896.3 -0.3 51
2019-08-26 04:00:00 20 4 Este 10 Este 0 896.7 0.2 49
2019-08-26 03:00:00 20.7 4 Este 13 Sur 0 896.5 0.4 47
2019-08-26 02:00:00 21 7 Sudeste 14 Sur 0 896.6 0.4 46
2019-08-26 01:00:00 21.9 10 Sur 25 Sur 0 896.5 0.8 42
2019-08-26 00:00:00 22.4 9 Sudeste 21 Sudeste 0 896.1 0.8 40
2019-08-25 23:00:00 23.1 9 Este 24 Este 0 896.2 1.3 41
2019-08-25 22:00:00 23.5 10 Este 24 Sudeste 0 895.7 0.8 38
2019-08-25 21:00:00 25 9 Sudeste 27 Sudeste 0 895.3 0 31
2019-08-25 20:00:00 26.9 11 Sudeste 33 Sudeste 0 894.9 -0.8 29
2019-08-25 19:00:00 30 10 Sur 28 Este 0 894.9 -1.2 19
2019-08-25 18:00:00 30.8 9 Sudeste 25 Sur 0 895.3 -1.2 18
2019-08-25 17:00:00 30.8 11 Este 28 Este 0 895.7 -1.3 22
2019-08-25 16:00:00 31 12 Sudeste 30 Sudeste 0 896.1 -1.2 20
2019-08-25 15:00:00 30.4 10 Sur 22 Sudeste 0 896.5 -1.5 23
2019-08-25 14:00:00 29.5 10 Sudeste 24 Sudeste 0 897 -1.4 26
2019-08-25 13:00:00 28.1 9 Sudeste 18 Sur 0 897.3 -1.1 30
2019-08-25 12:00:00 26 8 Sudeste 19 Sur 0 898 -0.3 35
2019-08-25 11:00:00 23.5 8 Sur 15 Este 0 898.4 0.4 40
2019-08-25 10:00:00 19.8 4 Norte 9 Nordeste 0 898.4 0.5 44
2019-08-25 09:00:00 15 3 Nordeste 7 Nordeste 0 898.3 0.5 57
2019-08-25 08:00:00 12.8 3 Este 6 Este 0 898 0.2 60
2019-08-25 07:00:00 13 4 Sudeste 5 Este 0 897.9 -0.1 58
2019-08-25 06:00:00 13.6 2 Sudeste 8 Este 0 897.8 -0.2 56
2019-08-25 05:00:00 14.4 2 Este 6 Sur 0 897.8 -0.2 51
2019-08-25 04:00:00 14.7 3 Este 8 Este 0 898 -0.1 51
2019-08-25 03:00:00 15.7 0 Calma 5 Norte 0 898 -0.2 49
2019-08-25 02:00:00 16.9 4 Este 8 Nordeste 0 898 -0.2 46
2019-08-25 01:00:00 19 0 Calma 4 Noroeste 0 898.1 0.1 37
2019-08-25 00:00:00 20 2 Norte 5 Nordeste 0 898.2 0.8 34
2019-08-24 23:00:00 20.7 3 Nordeste 13 Nordeste 0 898.2 1.2 34
2019-08-24 22:00:00 22.9 8 Nordeste 16 Este 0 898 1.2 31
2019-08-24 21:00:00 25.1 9 Nordeste 26 Este 0 897.4 0.6 30
2019-08-24 20:00:00 27.3 13 Este 32 Nordeste 0 897 -0.1 27
2019-08-24 19:00:00 29.5 17 Nordeste 36 Nordeste 0 896.8 -0.8 23
2019-08-24 18:00:00 31.6 9 Sudeste 33 Este 0 896.8 -1.3 17
2019-08-24 17:00:00 32.1 10 Sur 21 Sudoeste 0 897.1 -1.4 14
2019-08-24 16:00:00 31.7 8 Sur 17 Sudoeste 0 897.6 -1.3 15
2019-08-24 15:00:00 30.9 4 Sudeste 17 Sudeste 0 898.1 -1.1 15
2019-08-24 14:00:00 30.1 7 Sur 16 Sur 0 898.5 -0.9 23
2019-08-24 13:00:00 28 5 Sur 13 Sudeste 0 898.9 -0.5 27
2019-08-24 12:00:00 25.6 5 Sur 9 Sudeste 0 899.2 -0.1 34
2019-08-24 11:00:00 22.9 4 Sur 8 Sudeste 0 899.4 0.4 39
2019-08-24 10:00:00 19.9 5 Este 9 Nordeste 0 899.4 0.4 48
2019-08-24 09:00:00 14.8 3 Este 8 Nordeste 0 899.3 0.4 63
2019-08-24 08:00:00 12.9 2 Norte 6 Nordeste 0 899 0 66
2019-08-24 07:00:00 13.5 0 Calma 8 Este 0 899 -0.1 63
2019-08-24 06:00:00 13.9 4 Este 9 Nordeste 0 898.9 -0.3 61
2019-08-24 05:00:00 13.5 0 Calma 8 Este 0 899 -0.4 66
2019-08-24 04:00:00 14.3 3 Nordeste 12 Nordeste 0 899.1 -0.1 65
2019-08-24 03:00:00 15.3 2 Nordeste 7 Este 0 899.2 0.1 61
2019-08-24 02:00:00 16.9 3 Este 8 Este 0 899.4 0.5 57
2019-08-24 01:00:00 18.2 0 Calma 7 Nordeste 0 899.2 0.6 52
2019-08-24 00:00:00 19.2 4 Nordeste 10 Nordeste 0 899.1 1.1 51
2019-08-23 23:00:00 20.8 5 Nordeste 14 Este 0 898.9 1.4 48
2019-08-23 22:00:00 22.4 8 Nordeste 20 Nordeste 0 898.6 1.1 45
2019-08-23 21:00:00 24.4 12 Nordeste 21 Nordeste 0 898 0.4 41
2019-08-23 20:00:00 27.7 11 Nordeste 23 Nordeste 0 897.5 -0.4 31
2019-08-23 19:00:00 30.2 8 Sur 20 Sur 0 897.5 -0.8 21
2019-08-23 18:00:00 30.9 8 Sur 25 Sur 0 897.6 -1.4 21
2019-08-23 17:00:00 30.8 11 Sur 19 Sur 0 897.9 -1.6 20
2019-08-23 16:00:00 30.5 10 Sudoeste 22 Sudoeste 0 898.3 -1.7 18
2019-08-23 15:00:00 29.6 7 Sur 18 Sudeste 0 899 -1.2 19
2019-08-23 14:00:00 28.4 8 Oeste 15 Oeste 0 899.5 -1.1 24
2019-08-23 13:00:00 26.5 7 Sur 14 Sudeste 0 900 -0.6 35
2019-08-23 12:00:00 24.4 5 Sudoeste 12 Sur 0 900.2 -0.6 39
2019-08-23 11:00:00 22 4 Sur 9 Sudeste 0 900.6 0 41
2019-08-23 10:00:00 17.5 3 Sur 6 Sudeste 0 900.6 0.4 47
2019-08-23 09:00:00 13 3 Norte 9 Nordeste 0 900.8 0.6 56
2019-08-23 08:00:00 9.6 0 Calma 6 Este 0 900.6 0.3 66
2019-08-23 07:00:00 9.9 3 Este 6 Sudeste 0 900.2 -0.2 64
2019-08-23 06:00:00 10.2 3 Sudeste 5 Sudeste 0 900.2 -0.2 61
2019-08-23 05:00:00 11.1 2 Norte 7 Este 0 900.3 -0.1 58
2019-08-23 04:00:00 11.4 5 Este 9 Este 0 900.4 0 59
2019-08-23 03:00:00 12.5 3 Este 6 Este 0 900.4 0.1 49
2019-08-23 02:00:00 13 3 Sur 8 Este 0 900.4 0.1 51
2019-08-23 01:00:00 15.3 2 Noroeste 6 Noroeste 0 900.4 0.2 44
2019-08-23 00:00:00 16.7 4 Este 8 Este 0 900.3 0.8 44
2019-08-22 23:00:00 18.3 3 Nordeste 13 Nordeste 0 900.3 1 36
2019-08-22 22:00:00 20.4 5 Este 18 Nordeste 0 900.2 1 27
2019-08-22 21:00:00 22.7 9 Nordeste 18 Este 0 899.5 0.3 24
2019-08-22 20:00:00 24.9 9 Este 18 Sudeste 0 899.3 0 25
2019-08-22 19:00:00 26.8 10 Este 25 Este 0 899.2 -0.6 25
2019-08-22 18:00:00 28 12 Este 24 Nordeste 0 899.2 -0.9 24
2019-08-22 17:00:00 28.6 7 Este 20 Este 0 899.3 -1 24
2019-08-22 16:00:00 28 7 Este 19 Este 0 899.8 -0.9 25
2019-08-22 15:00:00 27 7 Este 21 Este 0 900.1 -0.9 27
2019-08-22 14:00:00 26.3 9 Este 23 Nordeste 0 900.3 -0.6 26
2019-08-22 13:00:00 24.6 8 Nordeste 24 Nordeste 0 900.7 -0.2 28
2019-08-22 12:00:00 23.1 3 Sudeste 13 Este 0 901 0.2 31
2019-08-22 11:00:00 20.8 6 Nordeste 10 Nordeste 0 900.9 0.5 31
2019-08-22 10:00:00 17.1 4 Norte 9 Nordeste 0 900.9 0.9 41
2019-08-22 09:00:00 12.3 4 Norte 10 Nordeste 0 900.8 1 57
2019-08-22 08:00:00 9.5 3 Este 7 Este 0 900.4 0.5 87
2019-08-22 07:00:00 10.5 2 Norte 5 Norte 0 900 0 84
2019-08-22 06:00:00 11.1 3 Nordeste 9 Este 0 899.8 -0.4 82
2019-08-22 05:00:00 12.1 5 Nordeste 12 Nordeste 0 899.9 -0.6 85
2019-08-22 04:00:00 13.4 2 Norte 15 Nordeste 0 900 -0.9 79
2019-08-22 03:00:00 13.7 5 Nordeste 15 Nordeste 0 900.2 -0.6 82
2019-08-22 02:00:00 14.7 3 Este 13 Norte 0 900.5 -0.1 81
2019-08-22 01:00:00 15.1 4 Este 10 Nordeste 0 900.9 0.9 80
2019-08-22 00:00:00 16.3 4 Sudeste 12 Nordeste 0 900.8 1.4 74
2019-08-21 23:00:00 18 8 Nordeste 19 Norte 0 900.6 1.9 64
2019-08-21 22:00:00 19.5 8 Nordeste 13 Este 0 900 1.7 56
2019-08-21 21:00:00 21.1 9 Este 25 Nordeste 0 899.4 1.4 53
2019-08-21 20:00:00 22.5 12 Este 25 Nordeste 0 898.7 1 52
2019-08-21 19:00:00 22.5 10 Nordeste 27 Nordeste 0 898.3 0.1 53
2019-08-21 18:00:00 23.8 10 Nordeste 25 Nordeste 0 898 -0.5 50
2019-08-21 17:00:00 24.4 15 Nordeste 27 Nordeste 0 897.7 -1.4 50
2019-08-21 16:00:00 24.4 5 Sur 16 Sudeste 0 898.2 -1.4 52
2019-08-21 15:00:00 24.5 8 Sudeste 14 Sur 0 898.5 -1.5 52
2019-08-21 14:00:00 23.8 8 Sur 18 Sur 0 899.1 -1.2 55
2019-08-21 13:00:00 22.5 7 Sur 14 Sur 0 899.6 -0.7 60
2019-08-21 12:00:00 19.3 9 Sur 14 Sur 0 900 -0.1 67
2019-08-21 11:00:00 17.1 7 Sur 12 Sur 0 900.3 0.4 71
2019-08-21 10:00:00 15.8 3 Este 9 Nordeste 0 900.3 0.3 74
2019-08-21 09:00:00 14.9 4 Este 8 Nordeste 0 900.1 0.1 77
2019-08-21 08:00:00 14.1 3 Norte 8 Nordeste 0 899.9 -0.5 79
2019-08-21 07:00:00 14 3 Norte 9 Este 0 900 -0.3 79
2019-08-21 06:00:00 13.6 4 Este 9 Este 0 900 -0.6 80
2019-08-21 05:00:00 13.4 2 Este 7 Nordeste 0 900.4 -0.4 77
2019-08-21 04:00:00 13.2 5 Nordeste 14 Nordeste 0 900.3 -0.7 78
2019-08-21 03:00:00 12.8 5 Nordeste 12 Nordeste 0 900.6 -0.4 80
2019-08-21 02:00:00 12.4 7 Nordeste 14 Nordeste 0 900.8 -0.1 81
2019-08-21 01:00:00 12.5 6 Nordeste 14 Nordeste 0 901 0.5 81
2019-08-21 00:00:00 13.2 8 Nordeste 20 Este 0 901 1 79